Time;durP1;ratioP1;P1;durP2;ratioP2;P2;SDS_P1;SDS_P2;PMS_P1;PMS_P2;Temp;Humidity;BMP_temperature;BMP_pressure;BME280_temperature;BME280_humidity;BME280_pressure;Samples;Min_cycle;Max_cycle;Signal;HPM_P1;HPM_P2
2023/04/26 00:01:15;;;;;;;50.83;24.15;;;7.80;99.90;;;;;;6243334;28;20050;-78
2023/04/26 00:04:17;;;;;;;44.17;24.25;;;7.80;99.90;;;;;;6249835;28;20044;-78
2023/04/26 00:07:19;;;;;;;41.70;24.13;;;7.80;99.90;;;;;;6240050;28;20056;-79
2023/04/26 00:10:20;;;;;;;39.00;19.40;;;7.70;99.90;;;;;;6230098;28;20049;-79
2023/04/26 00:13:22;;;;;;;38.47;20.00;;;7.60;99.90;;;;;;6228436;28;20052;-79
2023/04/26 00:16:25;;;;;;;43.72;19.75;;;7.50;99.90;;;;;;6229915;28;20053;-79
2023/04/26 00:19:27;;;;;;;33.42;17.23;;;7.40;99.90;;;;;;6228611;28;20046;-79
2023/04/26 00:22:29;;;;;;;37.38;18.50;;;7.30;99.90;;;;;;6227015;28;20053;-78
2023/04/26 00:25:30;;;;;;;35.45;19.70;;;7.30;99.90;;;;;;6247656;28;20511;-79
2023/04/26 00:28:32;;;;;;;39.10;18.42;;;7.20;99.90;;;;;;6257240;28;20045;-79
2023/04/26 00:31:35;;;;;;;39.45;17.92;;;7.20;99.90;;;;;;6266429;28;20072;-79
2023/04/26 00:34:37;;;;;;;43.15;20.00;;;7.00;99.90;;;;;;6259206;28;20424;-79
2023/04/26 00:37:40;;;;;;;35.53;16.42;;;7.00;99.90;;;;;;6256421;28;20522;-79
2023/04/26 00:40:42;;;;;;;34.05;15.18;;;7.00;99.90;;;;;;6253666;28;20060;-79
2023/04/26 00:43:44;;;;;;;31.67;16.90;;;6.90;99.90;;;;;;6251407;28;20053;-78
2023/04/26 00:46:47;;;;;;;35.22;15.98;;;6.80;99.90;;;;;;6251204;28;20414;-80
2023/04/26 00:49:49;;;;;;;40.92;17.77;;;6.80;99.90;;;;;;6249924;28;20053;-79
2023/04/26 00:52:51;;;;;;;34.17;19.13;;;6.70;99.90;;;;;;6248557;28;20045;-79
2023/04/26 00:55:53;;;;;;;30.52;14.40;;;6.60;99.90;;;;;;6251787;28;20057;-79
2023/04/26 00:58:55;;;;;;;30.52;15.65;;;6.50;99.90;;;;;;6251846;28;20044;-79
2023/04/26 01:01:59;;;;;;;42.63;16.75;;;6.40;99.90;;;;;;6250625;28;20049;-79
2023/04/26 01:05:00;;;;;;;30.95;13.43;;;6.30;99.90;;;;;;6249711;28;20120;-79
2023/04/26 01:08:03;;;;;;;26.10;13.60;;;6.20;99.90;;;;;;6249695;28;20509;-79
2023/04/26 01:11:05;;;;;;;35.58;15.27;;;6.10;99.90;;;;;;6249890;28;20423;-80
2023/04/26 01:14:07;;;;;;;26.80;14.02;;;6.00;99.90;;;;;;6249446;28;20132;-79
2023/04/26 01:17:10;;;;;;;32.65;15.65;;;6.00;99.90;;;;;;6252282;28;20049;-79
2023/04/26 01:20:13;;;;;;;39.30;16.23;;;5.90;99.90;;;;;;6256289;28;20049;-81
2023/04/26 01:23:16;;;;;;;34.55;14.98;;;5.90;99.90;;;;;;6250747;28;20053;-79
2023/04/26 01:26:18;;;;;;;29.75;15.23;;;5.90;99.90;;;;;;6227006;28;20418;-80
2023/04/26 01:29:23;;;;;;;34.25;16.75;;;5.80;99.90;;;;;;6223952;28;20168;-78
2023/04/26 01:32:24;;;;;;;30.23;14.73;;;5.80;99.90;;;;;;6225646;28;20053;-78
2023/04/26 01:35:26;;;;;;;31.55;15.90;;;5.70;99.90;;;;;;6224547;28;20099;-78
2023/04/26 01:38:29;;;;;;;26.13;13.65;;;5.60;99.90;;;;;;6225004;28;20045;-78
2023/04/26 01:41:32;;;;;;;25.83;13.27;;;5.60;99.90;;;;;;6227897;28;20049;-80
2023/04/26 01:44:34;;;;;;;35.40;15.10;;;5.50;99.90;;;;;;6225311;28;20104;-79
2023/04/26 01:47:35;;;;;;;34.83;17.35;;;5.40;99.90;;;;;;6225259;28;20053;-79
2023/04/26 01:50:37;;;;;;;40.72;17.23;;;5.40;99.90;;;;;;6226107;28;20056;-79
2023/04/26 01:53:40;;;;;;;43.63;17.02;;;5.30;99.90;;;;;;6223782;28;20045;-79
2023/04/26 01:56:42;;;;;;;38.65;17.75;;;5.30;99.90;;;;;;6224242;28;20054;-79
2023/04/26 01:59:43;;;;;;;44.60;16.38;;;5.30;99.90;;;;;;6223908;28;20046;-78
2023/04/26 02:02:45;;;;;;;38.53;17.30;;;5.20;99.90;;;;;;6224373;28;20509;-79
2023/04/26 02:05:47;;;;;;;37.03;15.45;;;5.10;99.90;;;;;;6223415;28;20744;-79
2023/04/26 02:08:50;;;;;;;38.05;16.25;;;5.10;99.90;;;;;;6224405;28;20046;-79
2023/04/26 02:11:51;;;;;;;35.45;17.80;;;5.00;99.90;;;;;;6224749;28;20049;-78
2023/04/26 02:14:53;;;;;;;32.67;17.17;;;4.90;99.90;;;;;;6223809;28;20505;-78
2023/04/26 02:17:55;;;;;;;39.78;17.73;;;4.90;99.90;;;;;;6224171;28;20053;-78
2023/04/26 02:20:57;;;;;;;40.70;17.88;;;4.80;99.90;;;;;;6223087;28;20073;-78
2023/04/26 02:24:00;;;;;;;41.60;18.77;;;4.70;99.90;;;;;;6233102;28;20045;-78
2023/04/26 02:27:02;;;;;;;39.65;16.20;;;4.60;99.90;;;;;;6247192;28;20053;-78
2023/04/26 02:30:05;;;;;;;38.33;19.30;;;4.50;99.90;;;;;;6247779;28;20054;-78
2023/04/26 02:33:08;;;;;;;39.05;18.35;;;4.50;99.90;;;;;;6247198;28;20416;-78
2023/04/26 02:36:10;;;;;;;37.42;16.88;;;4.30;99.90;;;;;;6248821;28;20052;-79
2023/04/26 02:39:13;;;;;;;42.35;19.70;;;4.20;99.90;;;;;;6248726;28;20042;-79
2023/04/26 02:42:14;;;;;;;41.72;18.05;;;4.10;99.90;;;;;;6247381;28;20052;-78
2023/04/26 02:45:16;;;;;;;49.38;18.52;;;4.00;99.90;;;;;;6225284;28;20052;-79
2023/04/26 02:48:18;;;;;;;69.50;22.50;;;4.00;99.90;;;;;;6227660;28;20046;-79
2023/04/26 02:51:19;;;;;;;86.57;28.00;;;3.90;99.90;;;;;;6228517;28;20050;-79
2023/04/26 02:54:22;;;;;;;94.55;27.48;;;3.90;99.90;;;;;;6227242;28;20053;-79
2023/04/26 02:57:24;;;;;;;99.95;28.48;;;4.00;99.90;;;;;;6225841;28;20046;-79
2023/04/26 03:00:26;;;;;;;95.57;26.42;;;4.00;99.90;;;;;;6225400;28;20408;-79
2023/04/26 03:03:29;;;;;;;96.30;27.48;;;3.90;99.90;;;;;;6225367;28;20108;-79
2023/04/26 03:06:32;;;;;;;106.20;34.00;;;4.10;99.90;;;;;;6224890;28;20180;-79
2023/04/26 03:09:37;;;;;;;146.55;32.55;;;4.20;99.90;;;;;;6225560;28;20042;-79
2023/04/26 03:12:38;;;;;;;135.00;34.17;;;4.30;99.90;;;;;;6225434;28;20045;-79
2023/04/26 03:15:44;;;;;;;118.18;31.00;;;4.30;99.90;;;;;;6227287;28;20501;-79
2023/04/26 03:18:46;;;;;;;135.45;29.08;;;4.40;99.90;;;;;;6227089;28;20042;-79
2023/04/26 03:21:47;;;;;;;95.85;25.77;;;4.50;99.90;;;;;;6226933;28;20046;-79
2023/04/26 03:24:50;;;;;;;106.03;27.13;;;4.50;99.90;;;;;;6243514;28;20060;-79
2023/04/26 03:27:52;;;;;;;117.05;26.85;;;4.60;99.90;;;;;;6250160;28;20424;-79
2023/04/26 03:30:54;;;;;;;105.78;28.38;;;4.60;99.90;;;;;;6248589;28;20049;-78
2023/04/26 03:33:55;;;;;;;102.47;22.80;;;4.60;99.90;;;;;;6247814;28;20514;-79
2023/04/26 03:36:57;;;;;;;124.47;24.92;;;4.60;99.90;;;;;;6248346;28;20041;-79
2023/04/26 03:40:00;;;;;;;116.72;25.45;;;4.60;99.90;;;;;;6248089;28;20049;-79
2023/04/26 03:43:02;;;;;;;140.05;25.90;;;4.50;99.90;;;;;;6252011;28;20048;-81
2023/04/26 03:46:04;;;;;;;115.20;20.65;;;4.50;99.90;;;;;;6261827;28;20055;-80
2023/04/26 03:49:06;;;;;;;107.35;23.02;;;4.50;99.90;;;;;;6256547;28;20329;-81
2023/04/26 03:52:08;;;;;;;95.57;23.75;;;4.40;99.90;;;;;;6258164;28;20053;-81
2023/04/26 03:55:11;;;;;;;111.38;27.33;;;4.40;99.90;;;;;;6258105;28;20053;-81
2023/04/26 03:58:13;;;;;;;81.32;21.92;;;4.40;99.90;;;;;;6258777;28;20045;-82
2023/04/26 04:01:15;;;;;;;57.30;20.27;;;4.40;99.90;;;;;;6259492;28;20049;-80
2023/04/26 04:04:16;;;;;;;66.30;19.88;;;4.30;99.90;;;;;;6259750;28;20046;-81
2023/04/26 04:07:18;;;;;;;57.17;18.20;;;4.30;99.90;;;;;;6259072;28;20527;-80
2023/04/26 04:10:22;;;;;;;57.30;18.58;;;4.30;99.90;;;;;;6261743;28;20092;-81
2023/04/26 04:13:23;;;;;;;55.10;18.23;;;4.20;99.90;;;;;;6262685;28;20466;-82
2023/04/26 04:16:25;;;;;;;63.83;17.92;;;4.10;99.90;;;;;;6263982;28;20504;-80
2023/04/26 04:19:27;;;;;;;55.63;17.75;;;4.10;99.90;;;;;;6261919;28;20049;-80
2023/04/26 04:22:29;;;;;;;53.40;17.05;;;4.10;99.90;;;;;;6260623;28;20064;-81
2023/04/26 04:25:32;;;;;;;48.65;18.63;;;4.00;99.90;;;;;;6261025;28;20500;-82
2023/04/26 04:28:34;;;;;;;53.28;18.60;;;4.00;99.90;;;;;;6262673;28;20046;-80
2023/04/26 04:31:35;;;;;;;64.32;20.90;;;4.00;99.90;;;;;;6259827;28;20060;-80
2023/04/26 04:34:38;;;;;;;49.63;15.27;;;4.00;99.90;;;;;;6259556;28;20470;-81
2023/04/26 04:37:39;;;;;;;48.05;18.77;;;4.00;99.90;;;;;;6263393;28;20085;-81
2023/04/26 04:40:43;;;;;;;60.58;19.33;;;4.00;99.90;;;;;;6261407;28;20045;-80
2023/04/26 04:43:45;;;;;;;58.58;18.38;;;4.00;99.90;;;;;;6262037;28;20060;-80
2023/04/26 04:46:47;;;;;;;74.88;19.60;;;4.00;99.90;;;;;;6262172;28;20045;-80
2023/04/26 04:49:48;;;;;;;56.78;19.58;;;4.00;99.90;;;;;;6245326;28;20048;-81
2023/04/26 04:52:50;;;;;;;39.85;16.83;;;4.00;99.90;;;;;;6237487;28;20053;-80
2023/04/26 04:55:53;;;;;;;48.08;16.35;;;4.00;99.90;;;;;;6236073;28;20411;-81
2023/04/26 04:58:55;;;;;;;44.05;17.35;;;4.00;99.90;;;;;;6236693;28;20428;-80
2023/04/26 05:01:57;;;;;;;56.10;18.25;;;4.00;99.90;;;;;;6240752;28;20080;-81
2023/04/26 05:05:00;;;;;;;34.13;15.32;;;4.10;99.90;;;;;;6243268;28;20046;-81
2023/04/26 05:08:01;;;;;;;35.25;14.82;;;4.10;99.90;;;;;;6239687;28;20061;-81
2023/04/26 05:11:04;;;;;;;35.25;15.35;;;4.30;99.90;;;;;;6238015;28;20052;-80
2023/04/26 05:14:06;;;;;;;35.78;16.90;;;4.40;99.90;;;;;;6273116;22;20054;-81
2023/04/26 05:17:08;;;;;;;28.50;14.73;;;4.50;99.90;;;;;;6231432;28;20042;-81
2023/04/26 05:20:10;;;;;;;31.83;16.05;;;4.70;99.90;;;;;;6228559;28;20046;-81
2023/04/26 05:23:12;;;;;;;26.08;14.82;;;4.90;99.90;;;;;;6241045;28;20052;-81
2023/04/26 05:26:16;;;;;;;19.80;12.40;;;5.30;99.90;;;;;;6255933;28;20068;-81
2023/04/26 05:29:18;;;;;;;17.80;10.73;;;5.60;99.90;;;;;;6253802;28;20068;-81
2023/04/26 05:32:19;;;;;;;13.93;10.18;;;6.00;99.90;;;;;;6256223;28;20057;-82
2023/04/26 05:35:21;;;;;;;12.90;10.07;;;6.60;99.90;;;;;;6254545;28;20049;-81
2023/04/26 05:38:23;;;;;;;8.98;7.53;;;7.20;99.90;;;;;;6259088;28;20045;-82
2023/04/26 05:41:26;;;;;;;8.52;7.50;;;7.90;99.90;;;;;;6255617;28;20053;-81
2023/04/26 05:44:28;;;;;;;7.65;6.63;;;8.50;99.90;;;;;;6252385;28;20054;-81
2023/04/26 05:47:29;;;;;;;6.95;6.25;;;8.90;99.90;;;;;;6230590;28;20057;-81
2023/04/26 05:50:31;;;;;;;5.93;5.32;;;9.30;99.90;;;;;;6227361;28;20046;-81
2023/04/26 05:53:33;;;;;;;7.78;5.30;;;9.60;99.90;;;;;;6228003;28;20121;-81
2023/04/26 05:56:36;;;;;;;7.28;6.03;;;9.90;99.90;;;;;;6234733;28;20123;-82
2023/04/26 05:59:38;;;;;;;6.60;6.00;;;10.30;99.90;;;;;;6236328;28;20504;-82
2023/04/26 06:02:40;;;;;;;7.18;6.45;;;10.80;99.90;;;;;;6235637;28;20065;-82
2023/04/26 06:05:41;;;;;;;8.85;6.70;;;11.30;99.90;;;;;;6235281;28;20380;-82
2023/04/26 06:08:43;;;;;;;6.97;6.03;;;11.80;99.90;;;;;;6234988;28;20053;-81
2023/04/26 06:11:46;;;;;;;7.43;6.60;;;12.40;99.90;;;;;;6229605;28;20062;-82
2023/04/26 06:14:48;;;;;;;11.88;6.80;;;12.90;99.90;;;;;;6229325;28;20071;-82
2023/04/26 06:17:50;;;;;;;8.50;7.57;;;13.40;99.90;;;;;;6230254;28;20054;-81
2023/04/26 06:20:51;;;;;;;9.63;8.63;;;13.90;99.90;;;;;;6227475;28;20058;-79
2023/04/26 06:23:53;;;;;;;11.02;7.57;;;14.50;99.90;;;;;;6237647;28;20044;-79
2023/04/26 06:26:56;;;;;;;7.53;6.35;;;14.90;99.90;;;;;;6228555;28;20052;-79
2023/04/26 06:29:58;;;;;;;10.95;6.93;;;15.30;99.90;;;;;;6224387;28;20412;-79
2023/04/26 06:33:00;;;;;;;7.32;6.55;;;15.60;99.90;;;;;;6240214;28;20037;-79
2023/04/26 06:36:01;;;;;;;7.47;6.00;;;15.90;99.90;;;;;;6243248;28;20045;-79
2023/04/26 06:39:03;;;;;;;6.82;5.72;;;16.20;99.90;;;;;;6233456;28;20061;-79
2023/04/26 06:42:06;;;;;;;8.48;5.05;;;16.40;99.90;;;;;;6235373;28;20053;-80
2023/04/26 06:45:10;;;;;;;9.00;5.75;;;16.30;99.90;;;;;;6235281;28;20124;-79
2023/04/26 06:48:11;;;;;;;7.07;5.43;;;15.90;99.90;;;;;;6235642;28;20037;-79
2023/04/26 06:51:14;;;;;;;8.98;5.85;;;15.50;99.90;;;;;;6255585;28;20041;-78
2023/04/26 06:54:15;;;;;;;12.32;6.03;;;15.60;99.90;;;;;;6254619;28;20068;-78
2023/04/26 06:57:18;;;;;;;9.32;6.28;;;15.90;99.90;;;;;;6254219;28;20049;-78
2023/04/26 07:00:21;;;;;;;6.97;5.35;;;16.20;99.90;;;;;;6255074;28;20045;-78
2023/04/26 07:03:23;;;;;;;9.40;6.20;;;16.40;99.90;;;;;;6254066;28;20688;-78
2023/04/26 07:06:26;;;;;;;10.35;6.55;;;16.40;99.90;;;;;;6258413;28;20378;-78
2023/04/26 07:09:27;;;;;;;10.10;6.45;;;16.30;99.90;;;;;;6257700;28;20049;-78
2023/04/26 07:12:30;;;;;;;12.70;6.57;;;16.00;99.90;;;;;;6244595;28;20060;-77
2023/04/26 07:15:32;;;;;;;7.93;7.03;;;15.90;99.90;;;;;;6232037;28;20046;-79
2023/04/26 07:18:34;;;;;;;9.10;6.10;;;15.90;99.90;;;;;;6231179;28;20053;-79
2023/04/26 07:21:36;;;;;;;8.80;6.57;;;15.70;99.90;;;;;;6230117;28;20052;-79
2023/04/26 07:24:38;;;;;;;10.07;6.32;;;15.90;99.90;;;;;;6231004;28;20050;-79
2023/04/26 07:27:44;;;;;;;8.38;6.15;;;16.20;99.90;;;;;;6239919;28;20045;-79
2023/04/26 07:30:45;;;;;;;10.57;5.63;;;16.50;99.90;;;;;;6232282;28;20064;-79
2023/04/26 07:33:47;;;;;;;9.45;6.65;;;16.80;99.90;;;;;;6230955;28;20412;-79
2023/04/26 07:36:49;;;;;;;7.97;5.75;;;17.20;99.90;;;;;;6231106;28;20080;-80
2023/04/26 07:39:51;;;;;;;6.53;5.25;;;17.70;99.90;;;;;;6230780;28;20077;-80
2023/04/26 07:42:55;;;;;;;11.45;5.70;;;18.10;99.90;;;;;;6231465;28;20046;-79
2023/04/26 07:45:59;;;;;;;10.30;5.03;;;18.20;99.90;;;;;;6245868;28;20056;-79
2023/04/26 07:49:01;;;;;;;8.82;4.97;;;18.60;99.90;;;;;;6257880;28;20095;-79
2023/04/26 07:52:03;;;;;;;7.55;5.60;;;19.10;99.90;;;;;;6258357;28;20051;-79
2023/04/26 07:55:06;;;;;;;6.43;5.45;;;19.70;99.90;;;;;;6257793;28;20042;-79
2023/04/26 07:58:13;;;;;;;8.35;4.80;;;20.10;99.90;;;;;;6257322;28;20048;-79
2023/04/26 08:01:14;;;;;;;10.23;4.70;;;20.50;99.90;;;;;;6259425;28;20164;-80
2023/04/26 08:04:18;;;;;;;11.27;5.70;;;20.80;99.90;;;;;;6258189;28;20057;-80
2023/04/26 08:07:20;;;;;;;9.45;4.97;;;21.10;99.90;;;;;;6256857;28;20057;-80
2023/04/26 08:10:22;;;;;;;7.38;4.78;;;21.20;99.90;;;;;;6256824;28;20065;-79
2023/04/26 08:13:25;;;;;;;9.55;4.85;;;21.20;99.90;;;;;;6255267;28;20053;-81
2023/04/26 08:16:27;;;;;;;7.03;4.85;;;21.40;99.90;;;;;;6256782;28;20533;-79
2023/04/26 08:19:31;;;;;;;5.57;4.28;;;21.40;99.90;;;;;;6255389;28;20514;-80
2023/04/26 08:22:33;;;;;;;9.80;5.00;;;21.70;99.90;;;;;;6254611;28;20041;-79
2023/04/26 08:25:34;;;;;;;6.35;4.00;;;21.90;99.90;;;;;;6233365;28;20049;-78
2023/04/26 08:28:56;;;;;;;5.97;4.57;;;21.90;99.90;;;;;;6230825;28;20053;-81
2023/04/26 08:31:57;;;;;;;9.40;4.22;;;22.00;99.90;;;;;;6262994;28;20053;-81
2023/04/26 08:34:59;;;;;;;5.68;4.25;;;21.90;99.90;;;;;;6235689;28;20047;-79
2023/04/26 08:38:01;;;;;;;10.25;3.70;;;21.80;99.80;;;;;;6254165;28;20049;-81
2023/04/26 08:41:04;;;;;;;12.48;3.75;;;21.60;98.50;;;;;;6234822;28;20129;-79
2023/04/26 08:44:08;;;;;;;7.32;4.20;;;21.50;96.90;;;;;;6237562;28;20053;-78
2023/04/26 08:47:16;;;;;;;5.22;3.20;;;21.30;95.40;;;;;;6237067;28;20045;-81
2023/04/26 08:50:21;;;;;;;8.85;4.68;;;21.00;94.90;;;;;;6238510;28;20430;-78
2023/04/26 08:53:24;;;;;;;5.13;3.90;;;20.10;93.90;;;;;;6236808;28;20041;-80
2023/04/26 08:56:26;;;;;;;10.32;4.47;;;20.00;95.20;;;;;;6234239;28;20416;-80
2023/04/26 08:59:31;;;;;;;22.77;17.83;;;19.80;95.80;;;;;;6241115;28;20442;-79
2023/04/26 09:02:33;;;;;;;8.82;7.68;;;19.70;95.40;;;;;;6237885;28;21487;-80
2023/04/26 09:05:35;;;;;;;24.50;19.27;;;19.50;95.70;;;;;;6234298;28;20361;-79
2023/04/26 09:08:41;;;;;;;34.35;31.77;;;19.70;95.30;;;;;;6237261;28;20049;-80
2023/04/26 09:11:54;;;;;;;10.02;7.32;;;19.90;94.20;;;;;;6238020;28;20057;-80
2023/04/26 09:14:57;;;;;;;9.90;4.65;;;20.00;93.20;;;;;;6234067;28;20050;-81
2023/04/26 09:18:16;;;;;;;7.70;3.40;;;20.20;93.10;;;;;;6239166;28;20041;-81
2023/04/26 09:21:19;;;;;;;6.97;3.83;;;19.90;91.60;;;;;;6236303;28;20320;-80
2023/04/26 09:24:20;;;;;;;6.35;3.67;;;19.80;91.80;;;;;;6234345;28;20053;-81
2023/04/26 09:27:22;;;;;;;6.65;3.97;;;19.50;91.40;;;;;;6236273;28;20041;-79
2023/04/26 09:30:26;;;;;;;8.27;7.20;;;19.30;91.00;;;;;;6238911;28;20048;-77
2023/04/26 09:33:28;;;;;;;8.00;6.80;;;19.40;90.30;;;;;;6240684;28;20053;-79
2023/04/26 09:36:30;;;;;;;6.75;4.07;;;19.90;90.40;;;;;;6248666;28;20050;-81
2023/04/26 09:39:34;;;;;;;3.03;2.72;;;20.60;89.00;;;;;;6232074;28;20080;-80
2023/04/26 09:42:36;;;;;;;4.45;3.70;;;21.00;86.40;;;;;;6230378;28;20037;-79
2023/04/26 09:45:48;;;;;;;9.82;3.38;;;21.10;85.60;;;;;;6234006;28;20281;-81
2023/04/26 09:49:01;;;;;;;5.35;2.90;;;21.10;82.30;;;;;;6234260;28;20053;-79
2023/04/26 09:52:05;;;;;;;3.83;2.72;;;20.80;80.00;;;;;;6234913;28;20056;-79
2023/04/26 09:55:07;;;;;;;5.15;2.75;;;20.70;81.90;;;;;;6234490;28;20435;-81
2023/04/26 09:58:10;;;;;;;6.38;4.10;;;20.40;80.50;;;;;;6235434;28;20045;-81
2023/04/26 10:01:16;;;;;;;6.68;3.85;;;20.10;81.50;;;;;;6243384;28;20184;-80
2023/04/26 10:04:19;;;;;;;4.03;2.55;;;19.90;80.80;;;;;;6242518;28;20183;-79
2023/04/26 10:07:22;;;;;;;5.90;3.38;;;19.60;81.80;;;;;;6239413;28;20049;-81
2023/04/26 10:10:26;;;;;;;10.82;3.53;;;19.20;81.00;;;;;;6239305;28;20061;-81
2023/04/26 10:13:28;;;;;;;6.50;3.50;;;18.80;81.00;;;;;;6238752;28;20052;-82
2023/04/26 10:16:32;;;;;;;7.38;3.20;;;18.50;80.00;;;;;;6239262;28;20041;-81
2023/04/26 10:19:35;;;;;;;5.10;3.05;;;18.50;79.60;;;;;;6240924;28;20041;-80
2023/04/26 10:22:43;;;;;;;6.65;3.42;;;18.60;78.60;;;;;;6238204;28;20061;-82
2023/04/26 10:25:45;;;;;;;7.32;3.13;;;19.00;77.50;;;;;;6239594;28;20133;-77
2023/04/26 10:28:57;;;;;;;5.63;2.78;;;19.40;75.70;;;;;;6239387;28;20060;-78
2023/04/26 10:32:11;;;;;;;13.15;2.63;;;19.60;70.00;;;;;;6239250;28;20050;-81
2023/04/26 10:35:32;;;;;;;5.00;2.72;;;19.50;68.00;;;;;;6236890;28;20049;-84
2023/04/26 10:38:35;;;;;;;6.32;2.70;;;19.50;65.90;;;;;;6232712;28;20064;-80
2023/04/26 10:41:38;;;;;;;7.45;2.28;;;19.60;65.30;;;;;;6236608;28;20053;-82
2023/04/26 10:44:44;;;;;;;5.10;2.35;;;19.80;64.20;;;;;;6246242;28;20081;-80
2023/04/26 10:47:47;;;;;;;5.82;2.15;;;20.00;63.30;;;;;;6234867;28;20502;-82
2023/04/26 10:51:07;;;;;;;5.68;2.97;;;20.10;62.10;;;;;;6234772;28;20061;-82
2023/04/26 10:54:09;;;;;;;6.43;2.83;;;20.10;59.80;;;;;;6231760;28;20049;-80
2023/04/26 10:57:11;;;;;;;4.60;1.80;;;20.10;60.20;;;;;;6232130;28;20598;-83
2023/04/26 11:00:30;;;;;;;5.40;2.53;;;20.40;59.80;;;;;;6232325;28;20389;-81
2023/04/26 11:03:34;;;;;;;5.15;2.78;;;20.90;58.00;;;;;;6238304;28;20054;-81
2023/04/26 11:06:49;;;;;;;4.35;3.22;;;21.30;57.40;;;;;;6233686;28;20076;-83
2023/04/26 11:09:52;;;;;;;5.70;2.40;;;21.60;56.70;;;;;;6231372;28;20523;-82
2023/04/26 11:13:00;;;;;;;4.78;2.10;;;21.70;55.50;;;;;;6255022;22;20057;-81
2023/04/26 11:16:04;;;;;;;3.65;2.72;;;21.00;53.20;;;;;;6226381;28;20050;-81
2023/04/26 11:19:09;;;;;;;7.63;3.72;;;20.50;54.50;;;;;;6228909;28;20042;-83
2023/04/26 11:22:11;;;;;;;4.28;2.72;;;20.50;55.40;;;;;;6227403;28;20056;-81
2023/04/26 11:25:13;;;;;;;5.35;3.95;;;20.60;55.00;;;;;;6235141;28;20046;-83
2023/04/26 11:28:15;;;;;;;3.30;2.60;;;20.80;54.60;;;;;;6235050;28;20426;-82
2023/04/26 11:31:19;;;;;;;7.10;2.85;;;20.80;54.40;;;;;;6232973;28;20046;-83
2023/04/26 11:34:23;;;;;;;8.82;3.25;;;20.90;53.90;;;;;;6239773;28;20049;-81
2023/04/26 11:37:25;;;;;;;5.13;2.88;;;20.90;53.30;;;;;;6234046;28;20495;-81
2023/04/26 11:40:30;;;;;;;2.92;2.47;;;20.90;53.00;;;;;;6228473;28;20060;-80
2023/04/26 11:43:35;;;;;;;6.03;3.13;;;21.10;53.30;;;;;;6227776;28;20065;-81
2023/04/26 11:46:37;;;;;;;5.90;2.60;;;21.40;52.60;;;;;;6228770;28;20103;-82
2023/04/26 11:49:40;;;;;;;5.18;3.05;;;21.50;52.40;;;;;;6227069;28;20053;-80
2023/04/26 11:52:42;;;;;;;7.38;2.33;;;21.70;51.10;;;;;;6226899;28;20615;-81
2023/04/26 11:55:45;;;;;;;5.20;2.40;;;21.20;49.90;;;;;;6228263;28;20053;-81
2023/04/26 11:58:48;;;;;;;5.88;2.50;;;20.80;50.10;;;;;;6237878;28;20060;-80
2023/04/26 12:01:51;;;;;;;3.35;1.85;;;20.60;50.60;;;;;;6236175;28;20491;-83
2023/04/26 12:05:02;;;;;;;4.05;2.78;;;20.50;51.00;;;;;;6231987;28;20046;-82
2023/04/26 12:08:04;;;;;;;4.60;2.47;;;20.40;51.00;;;;;;6228342;28;20105;-81
2023/04/26 12:11:07;;;;;;;7.07;2.58;;;20.40;51.30;;;;;;6233381;28;20407;-85
2023/04/26 12:14:10;;;;;;;4.03;2.92;;;20.30;51.20;;;;;;6230880;28;20096;-84
2023/04/26 12:17:15;;;;;;;8.35;1.85;;;20.30;51.00;;;;;;6232210;28;20049;-82
2023/04/26 12:20:19;;;;;;;7.00;2.22;;;20.30;50.90;;;;;;6236190;28;20057;-83
2023/04/26 12:23:21;;;;;;;7.00;2.75;;;20.50;51.20;;;;;;6234059;28;20049;-83
2023/04/26 12:26:39;;;;;;;5.53;2.05;;;20.50;50.70;;;;;;6233207;28;20064;-83
2023/04/26 12:29:41;;;;;;;5.28;2.80;;;20.50;50.40;;;;;;6233168;28;21145;-81
2023/04/26 12:32:43;;;;;;;7.45;4.65;;;20.50;50.70;;;;;;6230792;28;20056;-81
2023/04/26 12:35:46;;;;;;;6.70;2.50;;;20.60;51.00;;;;;;6231753;28;20050;-82
2023/04/26 12:38:48;;;;;;;7.40;2.47;;;20.70;50.60;;;;;;6231674;28;20064;-82
2023/04/26 12:41:50;;;;;;;8.20;5.07;;;21.00;50.30;;;;;;6230314;28;20052;-82
2023/04/26 12:44:51;;;;;;;5.95;2.67;;;21.20;49.80;;;;;;6227043;28;20050;-82
2023/04/26 12:47:54;;;;;;;4.43;2.47;;;21.30;49.20;;;;;;6229422;28;20137;-81
2023/04/26 12:50:57;;;;;;;5.07;4.25;;;21.40;48.50;;;;;;6234341;28;20046;-83
2023/04/26 12:53:58;;;;;;;4.22;2.70;;;21.60;48.10;;;;;;6233352;28;20069;-83
2023/04/26 12:57:00;;;;;;;12.02;8.00;;;21.70;48.20;;;;;;6235278;28;20037;-81
2023/04/26 13:00:03;;;;;;;6.78;2.90;;;21.90;48.70;;;;;;6232442;28;20177;-84
2023/04/26 13:03:04;;;;;;;7.63;3.03;;;22.30;48.20;;;;;;6232029;28;20045;-83
2023/04/26 13:06:08;;;;;;;7.90;4.80;;;22.50;47.60;;;;;;6227184;28;20042;-81
2023/04/26 13:09:12;;;;;;;4.93;2.65;;;22.90;46.90;;;;;;6235230;28;20053;-82
2023/04/26 13:12:15;;;;;;;49.67;33.85;;;23.20;46.50;;;;;;6230767;28;20060;-82
2023/04/26 13:15:16;;;;;;;7.88;2.47;;;23.50;46.10;;;;;;6226529;28;20054;-81
2023/04/26 13:18:18;;;;;;;4.68;2.47;;;23.70;46.10;;;;;;6228319;28;20049;-81
2023/04/26 13:21:21;;;;;;;4.35;2.88;;;23.90;45.60;;;;;;6230187;28;20038;-81
2023/04/26 13:24:23;;;;;;;6.50;3.70;;;24.00;45.00;;;;;;6225536;28;20054;-81
2023/04/26 13:27:25;;;;;;;6.30;2.55;;;24.10;44.50;;;;;;6228938;28;20045;-81
2023/04/26 13:30:26;;;;;;;5.90;2.70;;;24.00;44.30;;;;;;6227177;28;20049;-81
2023/04/26 13:33:28;;;;;;;5.30;3.65;;;23.60;43.50;;;;;;6229402;28;20079;-81
2023/04/26 13:36:31;;;;;;;5.78;4.45;;;23.30;44.10;;;;;;6223275;28;20053;-81
2023/04/26 13:39:33;;;;;;;7.22;3.20;;;23.20;44.50;;;;;;6226724;28;20075;-81
2023/04/26 13:42:35;;;;;;;6.95;3.22;;;23.10;44.80;;;;;;6225282;28;20415;-81
2023/04/26 13:45:36;;;;;;;4.25;2.35;;;22.90;44.90;;;;;;6222526;28;20491;-81
2023/04/26 13:48:38;;;;;;;3.35;2.67;;;22.70;45.10;;;;;;6227260;28;20451;-81
2023/04/26 13:51:41;;;;;;;6.00;3.00;;;22.80;45.10;;;;;;6224787;28;20048;-81
2023/04/26 13:54:43;;;;;;;5.05;2.95;;;22.70;45.00;;;;;;6228017;28;20049;-81
2023/04/26 13:57:45;;;;;;;5.25;3.58;;;22.50;44.70;;;;;;6227856;28;20058;-80
2023/04/26 14:00:46;;;;;;;7.38;3.20;;;22.30;44.80;;;;;;6228769;28;20086;-83
2023/04/26 14:03:48;;;;;;;6.25;2.50;;;22.30;44.90;;;;;;6231270;28;20068;-83
2023/04/26 14:06:52;;;;;;;12.73;3.10;;;22.20;45.40;;;;;;6227397;28;20061;-82
2023/04/26 14:09:54;;;;;;;4.72;2.58;;;22.40;45.30;;;;;;6226650;28;20496;-83
2023/04/26 14:12:56;;;;;;;6.55;2.88;;;22.60;44.90;;;;;;6235129;28;20049;-84
2023/04/26 14:15:57;;;;;;;8.10;4.03;;;22.80;44.80;;;;;;6231709;28;20113;-83
2023/04/26 14:18:59;;;;;;;5.03;3.05;;;22.60;44.60;;;;;;6237126;28;20049;-85
2023/04/26 14:22:02;;;;;;;6.47;2.83;;;22.10;44.70;;;;;;6232604;28;20049;-85
2023/04/26 14:25:05;;;;;;;5.18;2.85;;;21.80;45.40;;;;;;6230077;28;20524;-83
2023/04/26 14:28:07;;;;;;;7.80;3.50;;;21.90;45.50;;;;;;6232885;28;20140;-85
2023/04/26 14:31:09;;;;;;;12.52;10.55;;;21.80;45.40;;;;;;6239347;28;20041;-84
2023/04/26 14:34:12;;;;;;;33.55;30.08;;;22.00;45.00;;;;;;6235911;28;20046;-84
2023/04/26 14:37:15;;;;;;;6.68;4.97;;;22.20;44.80;;;;;;6235190;28;20046;-86
2023/04/26 14:40:17;;;;;;;12.20;9.93;;;22.40;44.70;;;;;;6228524;28;20049;-84
2023/04/26 14:43:18;;;;;;;5.25;2.75;;;22.40;44.60;;;;;;6229794;28;20050;-84
2023/04/26 14:46:20;;;;;;;5.60;4.78;;;22.20;44.00;;;;;;6231588;28;20042;-82
2023/04/26 14:49:22;;;;;;;6.85;3.55;;;21.90;44.60;;;;;;6229118;28;20129;-83
2023/04/26 14:52:27;;;;;;;7.40;6.70;;;22.00;44.80;;;;;;6227456;28;20076;-83
2023/04/26 14:55:29;;;;;;;15.93;14.43;;;22.20;44.30;;;;;;6227462;28;20119;-84
2023/04/26 14:58:31;;;;;;;16.40;14.70;;;22.30;44.20;;;;;;6232964;28;20053;-83
2023/04/26 15:01:33;;;;;;;7.03;4.47;;;22.60;44.10;;;;;;6232848;28;20050;-84
2023/04/26 15:04:36;;;;;;;5.82;2.28;;;22.70;44.20;;;;;;6227340;28;20049;-83
2023/04/26 15:07:39;;;;;;;3.20;2.90;;;23.00;44.30;;;;;;6236564;28;20050;-84
2023/04/26 15:10:41;;;;;;;7.82;3.25;;;23.20;43.50;;;;;;6231080;28;20556;-84
2023/04/26 15:13:43;;;;;;;3.55;2.10;;;23.40;43.40;;;;;;6226994;28;20382;-83
2023/04/26 15:16:45;;;;;;;2.70;2.20;;;23.50;42.90;;;;;;6230238;28;20041;-83
2023/04/26 15:19:48;;;;;;;7.60;3.15;;;23.20;42.40;;;;;;6228939;28;20144;-84
2023/04/26 15:22:51;;;;;;;5.03;3.00;;;22.70;43.10;;;;;;6228676;28;20052;-84
2023/04/26 15:25:53;;;;;;;6.05;2.67;;;22.40;43.90;;;;;;6226146;28;20050;-83
2023/04/26 15:28:55;;;;;;;4.70;3.75;;;22.40;43.90;;;;;;6230195;28;20056;-82
2023/04/26 15:31:57;;;;;;;5.45;2.78;;;22.40;43.80;;;;;;6233411;28;20042;-84
2023/04/26 15:34:59;;;;;;;5.07;3.08;;;22.30;43.70;;;;;;6232992;28;20049;-84
2023/04/26 15:38:03;;;;;;;4.13;2.97;;;22.40;43.50;;;;;;6237007;28;20056;-84
2023/04/26 15:41:05;;;;;;;4.05;2.33;;;22.40;43.40;;;;;;6229893;28;20061;-84
2023/04/26 15:44:07;;;;;;;3.35;2.95;;;22.20;43.50;;;;;;6232072;28;20041;-85